sensor_id;sensor_type;location;lat;lon;timestamp;pressure;altitude;pressure_sealevel;temperature;humidity
28181;BME280;15464;50.988;10.318;2023-06-24T00:02:02;99806.91;;;14.04;100.00
28181;BME280;15464;50.988;10.318;2023-06-24T00:04:29;99810.66;;;14.02;100.00
28181;BME280;15464;50.988;10.318;2023-06-24T00:06:55;99805.19;;;14.03;100.00
28181;BME280;15464;50.988;10.318;2023-06-24T00:09:26;99818.66;;;14.02;100.00
28181;BME280;15464;50.988;10.318;2023-06-24T00:11:57;99809.94;;;14.00;100.00
28181;BME280;15464;50.988;10.318;2023-06-24T00:14:49;99812.44;;;13.92;100.00
28181;BME280;15464;50.988;10.318;2023-06-24T00:17:16;99809.03;;;13.90;100.00
28181;BME280;15464;50.988;10.318;2023-06-24T00:19:43;99802.84;;;13.89;100.00
28181;BME280;15464;50.988;10.318;2023-06-24T00:22:12;99807.63;;;13.86;100.00
28181;BME280;15464;50.988;10.318;2023-06-24T00:24:41;99808.00;;;13.81;100.00
28181;BME280;15464;50.988;10.318;2023-06-24T00:27:09;99817.13;;;13.79;100.00
28181;BME280;15464;50.988;10.318;2023-06-24T00:29:37;99807.94;;;13.71;100.00
28181;BME280;15464;50.988;10.318;2023-06-24T00:32:04;99815.34;;;13.68;100.00
28181;BME280;15464;50.988;10.318;2023-06-24T00:34:31;99802.16;;;13.66;100.00
28181;BME280;15464;50.988;10.318;2023-06-24T00:36:58;99813.66;;;13.67;100.00
28181;BME280;15464;50.988;10.318;2023-06-24T00:39:24;99814.50;;;13.67;100.00
28181;BME280;15464;50.988;10.318;2023-06-24T00:41:51;99806.75;;;13.64;100.00
28181;BME280;15464;50.988;10.318;2023-06-24T00:44:19;99809.53;;;13.63;100.00
28181;BME280;15464;50.988;10.318;2023-06-24T00:46:46;99820.38;;;13.61;100.00
28181;BME280;15464;50.988;10.318;2023-06-24T00:49:13;99817.81;;;13.60;100.00
28181;BME280;15464;50.988;10.318;2023-06-24T00:51:41;99812.59;;;13.58;100.00
28181;BME280;15464;50.988;10.318;2023-06-24T00:54:17;99815.53;;;13.55;100.00
28181;BME280;15464;50.988;10.318;2023-06-24T00:56:44;99815.78;;;13.52;100.00
28181;BME280;15464;50.988;10.318;2023-06-24T00:59:13;99808.75;;;13.51;100.00
28181;BME280;15464;50.988;10.318;2023-06-24T01:01:41;99816.03;;;13.49;100.00
28181;BME280;15464;50.988;10.318;2023-06-24T01:04:08;99810.97;;;13.46;100.00
28181;BME280;15464;50.988;10.318;2023-06-24T01:06:35;99809.28;;;13.45;100.00
28181;BME280;15464;50.988;10.318;2023-06-24T01:09:03;99816.53;;;13.43;100.00
28181;BME280;15464;50.988;10.318;2023-06-24T01:11:32;99817.78;;;13.39;100.00
28181;BME280;15464;50.988;10.318;2023-06-24T01:13:59;99825.78;;;13.39;100.00
28181;BME280;15464;50.988;10.318;2023-06-24T01:28:24;99819.72;;;13.37;100.00
28181;BME280;15464;50.988;10.318;2023-06-24T01:31:20;99817.78;;;13.39;100.00
28181;BME280;15464;50.988;10.318;2023-06-24T01:36:19;99816.53;;;13.43;100.00
28181;BME280;15464;50.988;10.318;2023-06-24T01:38:54;99817.16;;;13.47;100.00
28181;BME280;15464;50.988;10.318;2023-06-24T01:41:24;99822.59;;;13.45;100.00
28181;BME280;15464;50.988;10.318;2023-06-24T01:43:56;99822.47;;;13.47;100.00
28181;BME280;15464;50.988;10.318;2023-06-24T01:46:25;99827.94;;;13.45;100.00
28181;BME280;15464;50.988;10.318;2023-06-24T01:48:59;99819.94;;;13.45;100.00
28181;BME280;15464;50.988;10.318;2023-06-24T01:51:29;99820.22;;;13.42;100.00
28181;BME280;15464;50.988;10.318;2023-06-24T01:54:03;99826.75;;;13.38;100.00
28181;BME280;15464;50.988;10.318;2023-06-24T01:56:32;99820.56;;;13.38;100.00
28181;BME280;15464;50.988;10.318;2023-06-24T01:59:02;99819.59;;;13.39;100.00
28181;BME280;15464;50.988;10.318;2023-06-24T02:01:32;99817.31;;;13.34;100.00
28181;BME280;15464;50.988;10.318;2023-06-24T02:04:00;99819.03;;;13.35;100.00
28181;BME280;15464;50.988;10.318;2023-06-24T02:06:28;99822.38;;;13.37;100.00
28181;BME280;15464;50.988;10.318;2023-06-24T02:08:57;99816.59;;;13.32;100.00
28181;BME280;15464;50.988;10.318;2023-06-24T02:11:25;99820.94;;;13.33;100.00
28181;BME280;15464;50.988;10.318;2023-06-24T02:13:54;99816.47;;;13.33;100.00
28181;BME280;15464;50.988;10.318;2023-06-24T02:16:22;99826.03;;;13.36;100.00
28181;BME280;15464;50.988;10.318;2023-06-24T02:18:50;99815.97;;;13.40;100.00
28181;BME280;15464;50.988;10.318;2023-06-24T02:21:18;99807.84;;;13.41;100.00
28181;BME280;15464;50.988;10.318;2023-06-24T02:23:47;99804.47;;;13.39;100.00
28181;BME280;15464;50.988;10.318;2023-06-24T02:26:15;99799.13;;;13.39;100.00
28181;BME280;15464;50.988;10.318;2023-06-24T02:28:44;99804.22;;;13.42;100.00
28181;BME280;15464;50.988;10.318;2023-06-24T02:31:12;99800.56;;;13.43;100.00
28181;BME280;15464;50.988;10.318;2023-06-24T02:33:40;99804.06;;;13.44;100.00
28181;BME280;15464;50.988;10.318;2023-06-24T02:36:06;99799.63;;;13.33;100.00
28181;BME280;15464;50.988;10.318;2023-06-24T02:38:33;99799.63;;;13.33;100.00
28181;BME280;15464;50.988;10.318;2023-06-24T02:41:00;99793.47;;;13.32;100.00
28181;BME280;15464;50.988;10.318;2023-06-24T02:43:32;99795.88;;;13.36;100.00
28181;BME280;15464;50.988;10.318;2023-06-24T02:46:01;99800.38;;;13.35;100.00
28181;BME280;15464;50.988;10.318;2023-06-24T02:48:30;99800.25;;;13.37;100.00
28181;BME280;15464;50.988;10.318;2023-06-24T02:50:59;99804.00;;;13.34;100.00
28181;BME280;15464;50.988;10.318;2023-06-24T02:53:26;99796.25;;;13.31;100.00
28181;BME280;15464;50.988;10.318;2023-06-24T02:55:55;99803.53;;;13.29;100.00
28181;BME280;15464;50.988;10.318;2023-06-24T02:58:26;99798.00;;;13.21;100.00
28181;BME280;15464;50.988;10.318;2023-06-24T03:00:59;99797.78;;;13.13;100.00
28181;BME280;15464;50.988;10.318;2023-06-24T03:03:29;99801.63;;;13.09;100.00
28181;BME280;15464;50.988;10.318;2023-06-24T03:05:57;99821.66;;;12.92;100.00
28181;BME280;15464;50.988;10.318;2023-06-24T03:08:24;99817.19;;;12.92;100.00
28181;BME280;15464;50.988;10.318;2023-06-24T03:10:54;99816.06;;;12.95;100.00
28181;BME280;15464;50.988;10.318;2023-06-24T03:13:21;99827.56;;;12.96;100.00
28181;BME280;15464;50.988;10.318;2023-06-24T03:15:48;99825.28;;;12.91;100.00
28181;BME280;15464;50.988;10.318;2023-06-24T03:18:16;99821.03;;;12.88;100.00
28181;BME280;15464;50.988;10.318;2023-06-24T03:20:43;99830.25;;;12.84;100.00
28181;BME280;15464;50.988;10.318;2023-06-24T03:23:10;99826.63;;;12.85;100.00
28181;BME280;15464;50.988;10.318;2023-06-24T03:25:37;99822.28;;;12.84;100.00
28181;BME280;15464;50.988;10.318;2023-06-24T03:28:04;99831.00;;;12.86;100.00
28181;BME280;15464;50.988;10.318;2023-06-24T03:30:33;99825.16;;;12.81;100.00
28181;BME280;15464;50.988;10.318;2023-06-24T03:33:00;99821.31;;;12.85;100.00
28181;BME280;15464;50.988;10.318;2023-06-24T03:35:27;99823.72;;;12.88;100.00
28181;BME280;15464;50.988;10.318;2023-06-24T03:37:54;99824.44;;;12.90;100.00
28181;BME280;15464;50.988;10.318;2023-06-24T03:40:20;99830.22;;;12.96;100.00
28181;BME280;15464;50.988;10.318;2023-06-24T03:42:47;99827.56;;;12.96;100.00
28181;BME280;15464;50.988;10.318;2023-06-24T03:45:14;99827.56;;;12.96;100.00
28181;BME280;15464;50.988;10.318;2023-06-24T03:47:40;99831.81;;;12.98;100.00
28181;BME280;15464;50.988;10.318;2023-06-24T03:50:07;99829.84;;;13.00;100.00
28181;BME280;15464;50.988;10.318;2023-06-24T03:52:34;99831.09;;;12.96;100.00
28181;BME280;15464;50.988;10.318;2023-06-24T03:55:01;99835.09;;;12.90;100.00
28181;BME280;15464;50.988;10.318;2023-06-24T03:57:30;99834.47;;;12.87;100.00
28181;BME280;15464;50.988;10.318;2023-06-24T03:59:57;99838.38;;;12.83;100.00
28181;BME280;15464;50.988;10.318;2023-06-24T04:02:24;99837.50;;;12.82;100.00
28181;BME280;15464;50.988;10.318;2023-06-24T04:04:50;99845.97;;;12.87;100.00
28181;BME280;15464;50.988;10.318;2023-06-24T04:07:18;99848.16;;;12.93;100.00
28181;BME280;15464;50.988;10.318;2023-06-24T04:09:54;99852.28;;;12.98;100.00
28181;BME280;15464;50.988;10.318;2023-06-24T04:12:22;99856.88;;;12.96;100.00
28181;BME280;15464;50.988;10.318;2023-06-24T04:14:49;99845.25;;;12.97;100.00
28181;BME280;15464;50.988;10.318;2023-06-24T04:17:15;99847.19;;;12.94;100.00
28181;BME280;15464;50.988;10.318;2023-06-24T04:19:42;99847.44;;;12.91;100.00
28181;BME280;15464;50.988;10.318;2023-06-24T04:22:09;99856.41;;;12.90;100.00
28181;BME280;15464;50.988;10.318;2023-06-24T04:24:36;99855.44;;;12.91;100.00
28181;BME280;15464;50.988;10.318;2023-06-24T04:27:03;99857.59;;;12.98;100.00
28181;BME280;15464;50.988;10.318;2023-06-24T04:29:30;99851.41;;;12.97;100.00
28181;BME280;15464;50.988;10.318;2023-06-24T04:31:56;99867.97;;;13.01;100.00
28181;BME280;15464;50.988;10.318;2023-06-24T04:34:23;99863.28;;;13.04;100.00
28181;BME280;15464;50.988;10.318;2023-06-24T04:36:50;99864.72;;;13.08;100.00
28181;BME280;15464;50.988;10.318;2023-06-24T04:39:16;99862.78;;;13.10;100.00
28181;BME280;15464;50.988;10.318;2023-06-24T04:41:43;99865.28;;;13.12;100.00
28181;BME280;15464;50.988;10.318;2023-06-24T04:44:10;99866.28;;;13.11;100.00
28181;BME280;15464;50.988;10.318;2023-06-24T04:46:36;99868.34;;;13.18;100.00
28181;BME280;15464;50.988;10.318;2023-06-24T04:49:03;99871.63;;;13.22;100.00
28181;BME280;15464;50.988;10.318;2023-06-24T04:51:30;99870.00;;;13.30;100.00
28181;BME280;15464;50.988;10.318;2023-06-24T04:53:57;99876.78;;;13.35;100.00
28181;BME280;15464;50.988;10.318;2023-06-24T04:56:24;99875.09;;;13.33;100.00
28181;BME280;15464;50.988;10.318;2023-06-24T04:58:51;99877.88;;;13.32;100.00
28181;BME280;15464;50.988;10.318;2023-06-24T05:01:17;99876.91;;;13.33;100.00
28181;BME280;15464;50.988;10.318;2023-06-24T05:03:44;99881.84;;;13.38;100.00
28181;BME280;15464;50.988;10.318;2023-06-24T05:06:11;99878.84;;;13.42;100.00
28181;BME280;15464;50.988;10.318;2023-06-24T05:08:38;99876.63;;;13.47;100.00
28181;BME280;15464;50.988;10.318;2023-06-24T05:11:05;99878.69;;;13.55;100.00
28181;BME280;15464;50.988;10.318;2023-06-24T05:13:31;99875.09;;;13.65;100.00
28181;BME280;15464;50.988;10.318;2023-06-24T05:15:58;99871.94;;;13.71;100.00
28181;BME280;15464;50.988;10.318;2023-06-24T05:18:25;99873.00;;;13.80;100.00
28181;BME280;15464;50.988;10.318;2023-06-24T05:20:52;99878.78;;;13.85;100.00
28181;BME280;15464;50.988;10.318;2023-06-24T05:23:19;99879.13;;;13.92;100.00
28181;BME280;15464;50.988;10.318;2023-06-24T05:25:45;99880.97;;;14.01;100.00
28181;BME280;15464;50.988;10.318;2023-06-24T05:28:12;99880.47;;;14.07;100.00
28181;BME280;15464;50.988;10.318;2023-06-24T05:30:40;99878.53;;;14.09;100.00
28181;BME280;15464;50.988;10.318;2023-06-24T05:33:07;99870.88;;;14.25;100.00
28181;BME280;15464;50.988;10.318;2023-06-24T05:35:35;99878.97;;;14.35;100.00
28181;BME280;15464;50.988;10.318;2023-06-24T05:38:06;99881.25;;;14.39;100.00
28181;BME280;15464;50.988;10.318;2023-06-24T05:40:33;99881.25;;;14.39;100.00
28181;BME280;15464;50.988;10.318;2023-06-24T05:43:00;99881.34;;;14.49;100.00
28181;BME280;15464;50.988;10.318;2023-06-24T05:45:27;99882.22;;;14.59;100.00
28181;BME280;15464;50.988;10.318;2023-06-24T05:47:54;99884.91;;;14.69;100.00
28181;BME280;15464;50.988;10.318;2023-06-24T05:50:20;99882.28;;;14.78;100.00
28181;BME280;15464;50.988;10.318;2023-06-24T05:52:47;99881.22;;;14.90;100.00
28181;BME280;15464;50.988;10.318;2023-06-24T05:55:14;99888.88;;;15.05;100.00
28181;BME280;15464;50.988;10.318;2023-06-24T05:57:41;99885.34;;;15.04;100.00
28181;BME280;15464;50.988;10.318;2023-06-24T06:00:08;99884.38;;;15.15;100.00
28181;BME280;15464;50.988;10.318;2023-06-24T06:02:35;99889.44;;;15.18;100.00
28181;BME280;15464;50.988;10.318;2023-06-24T06:05:03;99892.28;;;15.26;100.00
28181;BME280;15464;50.988;10.318;2023-06-24T06:07:29;99895.97;;;15.34;100.00
28181;BME280;15464;50.988;10.318;2023-06-24T06:09:56;99893.72;;;15.40;100.00
28181;BME280;15464;50.988;10.318;2023-06-24T06:12:23;99897.66;;;15.45;100.00
28181;BME280;15464;50.988;10.318;2023-06-24T06:14:49;99888.69;;;15.56;100.00
28181;BME280;15464;50.988;10.318;2023-06-24T06:17:16;99888.72;;;15.65;100.00
28181;BME280;15464;50.988;10.318;2023-06-24T06:19:43;99892.91;;;15.68;100.00
28181;BME280;15464;50.988;10.318;2023-06-24T06:22:16;99893.50;;;15.71;100.00
28181;BME280;15464;50.988;10.318;2023-06-24T06:24:42;99895.19;;;15.82;100.00
28181;BME280;15464;50.988;10.318;2023-06-24T06:27:10;99890.97;;;15.89;100.00
28181;BME280;15464;50.988;10.318;2023-06-24T06:29:37;99892.09;;;15.96;100.00
28181;BME280;15464;50.988;10.318;2023-06-24T06:32:04;99897.69;;;16.12;100.00
28181;BME280;15464;50.988;10.318;2023-06-24T06:34:31;99900.38;;;16.22;100.00
28181;BME280;15464;50.988;10.318;2023-06-24T06:36:58;99901.63;;;16.28;100.00
28181;BME280;15464;50.988;10.318;2023-06-24T06:39:25;99905.41;;;16.35;100.00
28181;BME280;15464;50.988;10.318;2023-06-24T06:41:52;99896.22;;;16.47;100.00
28181;BME280;15464;50.988;10.318;2023-06-24T06:44:19;99904.41;;;16.55;100.00
28181;BME280;15464;50.988;10.318;2023-06-24T06:46:46;99905.78;;;16.59;100.00
28181;BME280;15464;50.988;10.318;2023-06-24T06:49:12;99906.78;;;16.68;100.00
28181;BME280;15464;50.988;10.318;2023-06-24T06:51:39;99898.31;;;16.72;100.00
28181;BME280;15464;50.988;10.318;2023-06-24T06:54:05;99900.06;;;16.91;100.00
28181;BME280;15464;50.988;10.318;2023-06-24T06:56:32;99897.19;;;17.02;100.00
28181;BME280;15464;50.988;10.318;2023-06-24T06:58:59;99889.78;;;17.14;100.00
28181;BME280;15464;50.988;10.318;2023-06-24T07:01:26;99885.28;;;17.32;100.00
28181;BME280;15464;50.988;10.318;2023-06-24T07:03:52;99884.47;;;17.49;100.00
28181;BME280;15464;50.988;10.318;2023-06-24T07:06:19;99890.63;;;17.59;99.34
28181;BME280;15464;50.988;10.318;2023-06-24T07:08:46;99886.28;;;17.76;99.50
28181;BME280;15464;50.988;10.318;2023-06-24T07:11:13;99884.53;;;17.85;100.00
28181;BME280;15464;50.988;10.318;2023-06-24T07:13:40;99891.72;;;18.02;99.51
28181;BME280;15464;50.988;10.318;2023-06-24T07:16:06;99892.91;;;18.07;97.45
28181;BME280;15464;50.988;10.318;2023-06-24T07:18:33;99901.31;;;18.30;97.19
28181;BME280;15464;50.988;10.318;2023-06-24T07:21:00;99894.03;;;18.40;95.30
28181;BME280;15464;50.988;10.318;2023-06-24T07:23:27;99897.88;;;18.64;93.87
28181;BME280;15464;50.988;10.318;2023-06-24T07:25:54;99897.34;;;18.86;95.15
28181;BME280;15464;50.988;10.318;2023-06-24T07:28:21;99899.91;;;18.96;94.09
28181;BME280;15464;50.988;10.318;2023-06-24T07:30:47;99892.34;;;18.99;91.91
28181;BME280;15464;50.988;10.318;2023-06-24T07:33:14;99894.81;;;19.26;91.22
28181;BME280;15464;50.988;10.318;2023-06-24T07:35:41;99896.25;;;19.47;89.39
28181;BME280;15464;50.988;10.318;2023-06-24T07:38:08;99892.59;;;19.64;88.73
28181;BME280;15464;50.988;10.318;2023-06-24T07:40:34;99884.53;;;19.88;87.63
28181;BME280;15464;50.988;10.318;2023-06-24T07:43:01;99882.19;;;20.01;87.53
28181;BME280;15464;50.988;10.318;2023-06-24T07:45:28;99878.81;;;20.07;86.05
28181;BME280;15464;50.988;10.318;2023-06-24T07:47:55;99890.28;;;20.34;83.05
28181;BME280;15464;50.988;10.318;2023-06-24T07:50:21;99874.38;;;20.63;84.41
28181;BME280;15464;50.988;10.318;2023-06-24T07:52:48;99875.50;;;20.85;84.22
28181;BME280;15464;50.988;10.318;2023-06-24T07:55:15;99871.56;;;21.04;82.93
28181;BME280;15464;50.988;10.318;2023-06-24T07:57:45;99878.41;;;21.14;78.27
28181;BME280;15464;50.988;10.318;2023-06-24T08:00:13;99870.47;;;21.29;78.07
28181;BME280;15464;50.988;10.318;2023-06-24T08:02:41;99864.50;;;21.42;77.75
28181;BME280;15464;50.988;10.318;2023-06-24T08:05:08;99865.16;;;21.66;77.40
28181;BME280;15464;50.988;10.318;2023-06-24T08:07:36;99874.94;;;21.67;74.53
28181;BME280;15464;50.988;10.318;2023-06-24T08:10:04;99858.84;;;21.74;73.31
28181;BME280;15464;50.988;10.318;2023-06-24T08:12:31;99859.19;;;21.94;74.36
28181;BME280;15464;50.988;10.318;2023-06-24T08:14:57;99861.81;;;22.10;72.16
28181;BME280;15464;50.988;10.318;2023-06-24T08:17:24;99857.47;;;22.24;73.52
28181;BME280;15464;50.988;10.318;2023-06-24T08:19:51;99862.38;;;22.20;71.73
28181;BME280;15464;50.988;10.318;2023-06-24T08:22:17;99864.34;;;22.26;71.08
28181;BME280;15464;50.988;10.318;2023-06-24T08:24:44;99861.19;;;22.37;70.85
28181;BME280;15464;50.988;10.318;2023-06-24T08:27:11;99864.84;;;22.44;70.85
28181;BME280;15464;50.988;10.318;2023-06-24T08:29:37;99865.06;;;22.58;70.39
28181;BME280;15464;50.988;10.318;2023-06-24T08:32:04;99863.25;;;22.73;69.78
28181;BME280;15464;50.988;10.318;2023-06-24T08:34:33;99867.78;;;22.87;68.59
28181;BME280;15464;50.988;10.318;2023-06-24T08:37:00;99861.00;;;22.91;69.27
28181;BME280;15464;50.988;10.318;2023-06-24T08:39:27;99864.44;;;22.85;67.27
28181;BME280;15464;50.988;10.318;2023-06-24T08:41:54;99864.06;;;22.88;66.83
28181;BME280;15464;50.988;10.318;2023-06-24T08:44:20;99848.47;;;23.05;66.67
28181;BME280;15464;50.988;10.318;2023-06-24T08:46:48;99861.75;;;23.36;67.10
28181;BME280;15464;50.988;10.318;2023-06-24T08:49:28;99857.81;;;23.38;64.58
28181;BME280;15464;50.988;10.318;2023-06-24T08:52:18;99857.44;;;23.41;59.59
28181;BME280;15464;50.988;10.318;2023-06-24T08:54:50;99860.06;;;23.70;61.19
28181;BME280;15464;50.988;10.318;2023-06-24T08:57:17;99862.88;;;23.41;60.48
28181;BME280;15464;50.988;10.318;2023-06-24T08:59:45;99849.34;;;23.26;60.81
28181;BME280;15464;50.988;10.318;2023-06-24T09:02:12;99852.91;;;23.12;60.65
28181;BME280;15464;50.988;10.318;2023-06-24T09:04:40;99849.66;;;23.17;61.72
28181;BME280;15464;50.988;10.318;2023-06-24T09:07:07;99855.13;;;22.73;61.34
28181;BME280;15464;50.988;10.318;2023-06-24T09:09:44;99844.94;;;22.75;61.29
28181;BME280;15464;50.988;10.318;2023-06-24T09:12:13;99854.06;;;22.59;62.45
28181;BME280;15464;50.988;10.318;2023-06-24T09:14:48;99849.38;;;22.38;61.71
28181;BME280;15464;50.988;10.318;2023-06-24T09:17:14;99848.66;;;22.07;62.09
28181;BME280;15464;50.988;10.318;2023-06-24T09:19:41;99841.38;;;22.07;63.10
28181;BME280;15464;50.988;10.318;2023-06-24T09:22:10;99845.50;;;22.03;63.42
28181;BME280;15464;50.988;10.318;2023-06-24T09:24:45;99848.06;;;21.97;62.63
28181;BME280;15464;50.988;10.318;2023-06-24T09:27:14;99848.38;;;22.02;63.63
28181;BME280;15464;50.988;10.318;2023-06-24T09:29:42;99846.06;;;21.91;62.30
28181;BME280;15464;50.988;10.318;2023-06-24T09:32:09;99845.19;;;21.98;63.17
28181;BME280;15464;50.988;10.318;2023-06-24T09:34:37;99845.69;;;21.94;62.37
28181;BME280;15464;50.988;10.318;2023-06-24T09:37:04;99842.03;;;21.87;62.48
28181;BME280;15464;50.988;10.318;2023-06-24T09:39:37;99840.56;;;21.84;62.97
28181;BME280;15464;50.988;10.318;2023-06-24T09:42:04;99845.78;;;21.86;62.66
28181;BME280;15464;50.988;10.318;2023-06-24T09:44:33;99838.69;;;21.85;63.96
28181;BME280;15464;50.988;10.318;2023-06-24T09:47:00;99840.13;;;21.72;62.22
28181;BME280;15464;50.988;10.318;2023-06-24T09:49:27;99833.09;;;21.63;63.40
28181;BME280;15464;50.988;10.318;2023-06-24T09:51:56;99839.59;;;21.77;64.42
28181;BME280;15464;50.988;10.318;2023-06-24T09:54:26;99840.66;;;21.68;62.18
28181;BME280;15464;50.988;10.318;2023-06-24T09:57:02;99832.69;;;21.74;63.17
28181;BME280;15464;50.988;10.318;2023-06-24T09:59:30;99837.78;;;21.69;64.56
28181;BME280;15464;50.988;10.318;2023-06-24T10:02:02;99822.91;;;21.73;63.47
28181;BME280;15464;50.988;10.318;2023-06-24T10:04:30;99835.44;;;21.89;62.99
28181;BME280;15464;50.988;10.318;2023-06-24T10:06:57;99837.34;;;21.81;62.75
28181;BME280;15464;50.988;10.318;2023-06-24T10:09:25;99830.66;;;21.77;61.54
28181;BME280;15464;50.988;10.318;2023-06-24T10:11:52;99832.69;;;21.74;62.04
28181;BME280;15464;50.988;10.318;2023-06-24T10:14:18;99829.81;;;21.99;62.60
28181;BME280;15464;50.988;10.318;2023-06-24T10:16:45;99825.00;;;22.09;63.78
28181;BME280;15464;50.988;10.318;2023-06-24T10:19:19;99830.22;;;22.25;62.61
28181;BME280;15464;50.988;10.318;2023-06-24T10:21:49;99830.91;;;22.27;61.67
28181;BME280;15464;50.988;10.318;2023-06-24T10:24:30;99819.59;;;22.09;62.22
28181;BME280;15464;50.988;10.318;2023-06-24T10:27:03;99824.38;;;22.22;62.04
28181;BME280;15464;50.988;10.318;2023-06-24T10:29:39;99814.50;;;22.29;61.77
28181;BME280;15464;50.988;10.318;2023-06-24T10:32:07;99818.69;;;22.17;61.98
28181;BME280;15464;50.988;10.318;2023-06-24T10:34:45;99806.56;;;22.57;63.85
28181;BME280;15464;50.988;10.318;2023-06-24T10:37:19;99809.59;;;22.91;62.20
28181;BME280;15464;50.988;10.318;2023-06-24T10:39:52;99802.06;;;23.08;58.28
28181;BME280;15464;50.988;10.318;2023-06-24T10:44:51;99803.25;;;23.20;59.47
28181;BME280;15464;50.988;10.318;2023-06-24T10:47:18;99799.75;;;23.41;56.25
28181;BME280;15464;50.988;10.318;2023-06-24T10:49:45;99787.66;;;23.58;57.63
28181;BME280;15464;50.988;10.318;2023-06-24T10:52:12;99789.25;;;23.74;56.63
28181;BME280;15464;50.988;10.318;2023-06-24T10:54:40;99788.50;;;23.86;57.17
28181;BME280;15464;50.988;10.318;2023-06-24T10:57:09;99777.22;;;24.04;55.69
28181;BME280;15464;50.988;10.318;2023-06-24T10:59:46;99778.28;;;24.09;53.30
28181;BME280;15464;50.988;10.318;2023-06-24T11:02:14;99781.22;;;24.36;54.81
28181;BME280;15464;50.988;10.318;2023-06-24T11:04:48;99776.25;;;24.18;56.49
28181;BME280;15464;50.988;10.318;2023-06-24T11:07:17;99766.81;;;24.35;54.67
28181;BME280;15464;50.988;10.318;2023-06-24T11:09:55;99757.38;;;24.66;54.87
28181;BME280;15464;50.988;10.318;2023-06-24T11:12:27;99763.47;;;25.22;52.53
28181;BME280;15464;50.988;10.318;2023-06-24T11:15:03;99766.53;;;24.58;50.44
28181;BME280;15464;50.988;10.318;2023-06-24T11:17:30;99758.59;;;24.63;51.09
28181;BME280;15464;50.988;10.318;2023-06-24T11:19:58;99757.56;;;24.23;54.09
28181;BME280;15464;50.988;10.318;2023-06-24T11:22:25;99751.38;;;24.77;52.13
28181;BME280;15464;50.988;10.318;2023-06-24T11:24:53;99748.84;;;25.36;50.75
28181;BME280;15464;50.988;10.318;2023-06-24T11:27:27;99745.97;;;25.97;51.24
28181;BME280;15464;50.988;10.318;2023-06-24T11:29:55;99740.06;;;26.39;51.70
28181;BME280;15464;50.988;10.318;2023-06-24T11:32:25;99732.41;;;25.90;49.31
28181;BME280;15464;50.988;10.318;2023-06-24T11:34:51;99742.59;;;25.42;49.23
28181;BME280;15464;50.988;10.318;2023-06-24T11:37:18;99745.53;;;24.73;49.67
28181;BME280;15464;50.988;10.318;2023-06-24T11:40:03;99735.06;;;25.38;47.10
28181;BME280;15464;50.988;10.318;2023-06-24T11:42:32;99726.75;;;25.85;46.43
28181;BME280;15464;50.988;10.318;2023-06-24T11:45:01;99732.00;;;25.60;47.52
28181;BME280;15464;50.988;10.318;2023-06-24T11:47:31;99729.03;;;26.28;46.94
28181;BME280;15464;50.988;10.318;2023-06-24T11:49:59;99730.34;;;26.63;49.11
28181;BME280;15464;50.988;10.318;2023-06-24T11:52:38;99724.81;;;27.27;46.74
28181;BME280;15464;50.988;10.318;2023-06-24T11:55:22;99712.28;;;27.20;48.16
28181;BME280;15464;50.988;10.318;2023-06-24T12:00:21;99715.16;;;26.87;50.55
28181;BME280;15464;50.988;10.318;2023-06-24T12:02:50;99720.31;;;26.64;48.46
28181;BME280;15464;50.988;10.318;2023-06-24T12:05:34;99705.84;;;27.14;45.22
28181;BME280;15464;50.988;10.318;2023-06-24T12:08:10;99697.00;;;27.75;44.84
28181;BME280;15464;50.988;10.318;2023-06-24T12:10:38;99702.56;;;27.30;45.32
28181;BME280;15464;50.988;10.318;2023-06-24T12:13:06;99711.44;;;26.81;48.55
28181;BME280;15464;50.988;10.318;2023-06-24T12:15:33;99709.03;;;26.60;47.33
28181;BME280;15464;50.988;10.318;2023-06-24T12:18:00;99698.03;;;26.80;47.81
28181;BME280;15464;50.988;10.318;2023-06-24T12:20:29;99701.03;;;26.72;48.07
28181;BME280;15464;50.988;10.318;2023-06-24T12:23:00;99697.03;;;27.44;45.72
28181;BME280;15464;50.988;10.318;2023-06-24T12:25:27;99696.31;;;27.55;45.42
28181;BME280;15464;50.988;10.318;2023-06-24T12:27:54;99691.31;;;27.77;47.95
28181;BME280;15464;50.988;10.318;2023-06-24T12:32:51;99684.06;;;28.50;43.91
28181;BME280;15464;50.988;10.318;2023-06-24T12:35:18;99683.69;;;28.46;44.60
28181;BME280;15464;50.988;10.318;2023-06-24T12:37:45;99677.78;;;28.98;44.03
28181;BME280;15464;50.988;10.318;2023-06-24T12:40:12;99673.06;;;29.46;42.97
28181;BME280;15464;50.988;10.318;2023-06-24T12:42:38;99661.41;;;29.62;42.16
28181;BME280;15464;50.988;10.318;2023-06-24T12:45:06;99676.44;;;29.95;41.78
28181;BME280;15464;50.988;10.318;2023-06-24T12:47:33;99670.66;;;30.31;41.60
28181;BME280;15464;50.988;10.318;2023-06-24T12:50:00;99659.91;;;29.25;39.54
28181;BME280;15464;50.988;10.318;2023-06-24T12:52:26;99668.66;;;29.45;40.07
28181;BME280;15464;50.988;10.318;2023-06-24T12:54:53;99664.91;;;29.28;40.12
28181;BME280;15464;50.988;10.318;2023-06-24T12:57:20;99667.06;;;28.30;39.25
28181;BME280;15464;50.988;10.318;2023-06-24T12:59:46;99668.91;;;28.18;39.25
28181;BME280;15464;50.988;10.318;2023-06-24T13:02:13;99668.47;;;28.21;39.36
28181;BME280;15464;50.988;10.318;2023-06-24T13:04:40;99667.44;;;29.00;39.93
28181;BME280;15464;50.988;10.318;2023-06-24T13:07:07;99660.13;;;29.53;39.27
28181;BME280;15464;50.988;10.318;2023-06-24T13:09:36;99654.41;;;29.78;39.04
28181;BME280;15464;50.988;10.318;2023-06-24T13:12:03;99658.09;;;29.84;37.63
28181;BME280;15464;50.988;10.318;2023-06-24T13:14:30;99654.53;;;29.72;36.94